sensor_id;sensor_type;location;lat;lon;timestamp;pressure;altitude;pressure_sealevel;temperature
68446;BMP280;35789;48.414;12.768;2022-12-10T00:00:00;95730.0;;;
68446;BMP280;35789;48.414;12.768;2022-12-10T00:05:00;95730.0;;;
68446;BMP280;35789;48.414;12.768;2022-12-10T00:10:00;95740.0;;;
68446;BMP280;35789;48.414;12.768;2022-12-10T00:15:00;95740.0;;;
68446;BMP280;35789;48.414;12.768;2022-12-10T00:20:00;95740.0;;;
68446;BMP280;35789;48.414;12.768;2022-12-10T00:25:00;95740.0;;;
68446;BMP280;35789;48.414;12.768;2022-12-10T00:30:00;95730.0;;;
68446;BMP280;35789;48.414;12.768;2022-12-10T00:35:00;95740.0;;;
68446;BMP280;35789;48.414;12.768;2022-12-10T00:40:00;95750.0;;;
68446;BMP280;35789;48.414;12.768;2022-12-10T00:45:00;95760.0;;;
68446;BMP280;35789;48.414;12.768;2022-12-10T00:50:00;95770.0;;;
68446;BMP280;35789;48.414;12.768;2022-12-10T00:55:00;95760.0;;;
68446;BMP280;35789;48.414;12.768;2022-12-10T01:00:00;95770.0;;;
68446;BMP280;35789;48.414;12.768;2022-12-10T01:05:00;95780.0;;;
68446;BMP280;35789;48.414;12.768;2022-12-10T01:10:00;95790.0;;;
68446;BMP280;35789;48.414;12.768;2022-12-10T01:15:00;95790.0;;;
68446;BMP280;35789;48.414;12.768;2022-12-10T01:20:00;95790.0;;;
68446;BMP280;35789;48.414;12.768;2022-12-10T01:25:00;95790.0;;;
68446;BMP280;35789;48.414;12.768;2022-12-10T01:30:00;95790.0;;;
68446;BMP280;35789;48.414;12.768;2022-12-10T01:35:00;95800.0;;;
68446;BMP280;35789;48.414;12.768;2022-12-10T01:40:00;95790.0;;;
68446;BMP280;35789;48.414;12.768;2022-12-10T01:45:06;95800.0;;;
68446;BMP280;35789;48.414;12.768;2022-12-10T01:50:01;95800.0;;;
68446;BMP280;35789;48.414;12.768;2022-12-10T01:55:00;95800.0;;;
68446;BMP280;35789;48.414;12.768;2022-12-10T02:00:05;95790.0;;;
68446;BMP280;35789;48.414;12.768;2022-12-10T02:05:13;95780.0;;;
68446;BMP280;35789;48.414;12.768;2022-12-10T02:10:08;95790.0;;;
68446;BMP280;35789;48.414;12.768;2022-12-10T02:15:17;95780.0;;;
68446;BMP280;35789;48.414;12.768;2022-12-10T02:20:08;95790.0;;;
68446;BMP280;35789;48.414;12.768;2022-12-10T02:25:02;95790.0;;;
68446;BMP280;35789;48.414;12.768;2022-12-10T02:30:01;95780.0;;;
68446;BMP280;35789;48.414;12.768;2022-12-10T02:35:06;95770.0;;;
68446;BMP280;35789;48.414;12.768;2022-12-10T02:40:06;95760.0;;;
68446;BMP280;35789;48.414;12.768;2022-12-10T02:45:02;95780.0;;;
68446;BMP280;35789;48.414;12.768;2022-12-10T02:50:01;95760.0;;;
68446;BMP280;35789;48.414;12.768;2022-12-10T02:55:00;95760.0;;;
68446;BMP280;35789;48.414;12.768;2022-12-10T03:00:09;95770.0;;;
68446;BMP280;35789;48.414;12.768;2022-12-10T03:05:05;95770.0;;;
68446;BMP280;35789;48.414;12.768;2022-12-10T03:10:07;95760.0;;;
68446;BMP280;35789;48.414;12.768;2022-12-10T03:15:05;95770.0;;;
68446;BMP280;35789;48.414;12.768;2022-12-10T03:20:02;95780.0;;;
68446;BMP280;35789;48.414;12.768;2022-12-10T03:25:01;95770.0;;;
68446;BMP280;35789;48.414;12.768;2022-12-10T03:30:00;95780.0;;;
68446;BMP280;35789;48.414;12.768;2022-12-10T03:35:02;95790.0;;;
68446;BMP280;35789;48.414;12.768;2022-12-10T03:40:02;95780.0;;;
68446;BMP280;35789;48.414;12.768;2022-12-10T03:45:00;95780.0;;;
68446;BMP280;35789;48.414;12.768;2022-12-10T03:50:00;95790.0;;;
68446;BMP280;35789;48.414;12.768;2022-12-10T03:55:00;95780.0;;;
68446;BMP280;35789;48.414;12.768;2022-12-10T04:00:00;95780.0;;;
68446;BMP280;35789;48.414;12.768;2022-12-10T04:05:00;95780.0;;;
68446;BMP280;35789;48.414;12.768;2022-12-10T04:10:00;95780.0;;;
68446;BMP280;35789;48.414;12.768;2022-12-10T04:15:00;95790.0;;;
68446;BMP280;35789;48.414;12.768;2022-12-10T04:20:01;95790.0;;;
68446;BMP280;35789;48.414;12.768;2022-12-10T04:25:00;95800.0;;;
68446;BMP280;35789;48.414;12.768;2022-12-10T04:30:00;95790.0;;;
68446;BMP280;35789;48.414;12.768;2022-12-10T04:35:00;95800.0;;;
68446;BMP280;35789;48.414;12.768;2022-12-10T04:40:00;95800.0;;;
68446;BMP280;35789;48.414;12.768;2022-12-10T04:45:00;95800.0;;;
68446;BMP280;35789;48.414;12.768;2022-12-10T04:50:00;95790.0;;;
68446;BMP280;35789;48.414;12.768;2022-12-10T04:55:00;95780.0;;;
68446;BMP280;35789;48.414;12.768;2022-12-10T05:00:00;95800.0;;;
68446;BMP280;35789;48.414;12.768;2022-12-10T05:05:00;95800.0;;;
68446;BMP280;35789;48.414;12.768;2022-12-10T05:10:00;95780.0;;;
68446;BMP280;35789;48.414;12.768;2022-12-10T05:15:00;95780.0;;;
68446;BMP280;35789;48.414;12.768;2022-12-10T05:20:00;95770.0;;;
68446;BMP280;35789;48.414;12.768;2022-12-10T05:25:00;95770.0;;;
68446;BMP280;35789;48.414;12.768;2022-12-10T05:30:00;95780.0;;;
68446;BMP280;35789;48.414;12.768;2022-12-10T05:35:00;95790.0;;;
68446;BMP280;35789;48.414;12.768;2022-12-10T05:40:00;95790.0;;;
68446;BMP280;35789;48.414;12.768;2022-12-10T05:45:00;95790.0;;;
68446;BMP280;35789;48.414;12.768;2022-12-10T05:50:00;95800.0;;;
68446;BMP280;35789;48.414;12.768;2022-12-10T05:55:00;95800.0;;;
68446;BMP280;35789;48.414;12.768;2022-12-10T06:00:00;95810.0;;;
68446;BMP280;35789;48.414;12.768;2022-12-10T06:05:00;95800.0;;;
68446;BMP280;35789;48.414;12.768;2022-12-10T06:10:00;95800.0;;;
68446;BMP280;35789;48.414;12.768;2022-12-10T06:15:00;95790.0;;;
68446;BMP280;35789;48.414;12.768;2022-12-10T06:20:00;95790.0;;;
68446;BMP280;35789;48.414;12.768;2022-12-10T06:25:00;95800.0;;;
68446;BMP280;35789;48.414;12.768;2022-12-10T06:30:00;95810.0;;;
68446;BMP280;35789;48.414;12.768;2022-12-10T06:35:00;95810.0;;;
68446;BMP280;35789;48.414;12.768;2022-12-10T06:40:00;95810.0;;;
68446;BMP280;35789;48.414;12.768;2022-12-10T06:45:00;95810.0;;;
68446;BMP280;35789;48.414;12.768;2022-12-10T06:50:00;95810.0;;;
68446;BMP280;35789;48.414;12.768;2022-12-10T06:55:00;95820.0;;;
68446;BMP280;35789;48.414;12.768;2022-12-10T07:00:00;95820.0;;;
68446;BMP280;35789;48.414;12.768;2022-12-10T07:05:00;95830.0;;;
68446;BMP280;35789;48.414;12.768;2022-12-10T07:10:00;95830.0;;;
68446;BMP280;35789;48.414;12.768;2022-12-10T07:15:00;95820.0;;;
68446;BMP280;35789;48.414;12.768;2022-12-10T07:20:00;95830.0;;;
68446;BMP280;35789;48.414;12.768;2022-12-10T07:25:00;95830.0;;;
68446;BMP280;35789;48.414;12.768;2022-12-10T07:30:00;95830.0;;;
68446;BMP280;35789;48.414;12.768;2022-12-10T07:35:00;95820.0;;;
68446;BMP280;35789;48.414;12.768;2022-12-10T07:40:00;95820.0;;;
68446;BMP280;35789;48.414;12.768;2022-12-10T07:45:00;95830.0;;;
68446;BMP280;35789;48.414;12.768;2022-12-10T07:50:00;95820.0;;;
68446;BMP280;35789;48.414;12.768;2022-12-10T07:55:00;95820.0;;;
68446;BMP280;35789;48.414;12.768;2022-12-10T08:00:00;95820.0;;;
68446;BMP280;35789;48.414;12.768;2022-12-10T08:05:00;95820.0;;;
68446;BMP280;35789;48.414;12.768;2022-12-10T08:10:00;95820.0;;;
68446;BMP280;35789;48.414;12.768;2022-12-10T08:15:00;95820.0;;;
68446;BMP280;35789;48.414;12.768;2022-12-10T08:20:00;95820.0;;;
68446;BMP280;35789;48.414;12.768;2022-12-10T08:25:00;95820.0;;;
68446;BMP280;35789;48.414;12.768;2022-12-10T08:30:00;95810.0;;;
68446;BMP280;35789;48.414;12.768;2022-12-10T08:35:00;95830.0;;;
68446;BMP280;35789;48.414;12.768;2022-12-10T08:40:00;95820.0;;;
68446;BMP280;35789;48.414;12.768;2022-12-10T08:45:00;95820.0;;;
68446;BMP280;35789;48.414;12.768;2022-12-10T08:50:00;95830.0;;;
68446;BMP280;35789;48.414;12.768;2022-12-10T08:55:00;95840.0;;;
68446;BMP280;35789;48.414;12.768;2022-12-10T09:00:00;95840.0;;;
68446;BMP280;35789;48.414;12.768;2022-12-10T09:05:00;95850.0;;;
68446;BMP280;35789;48.414;12.768;2022-12-10T09:10:00;95850.0;;;
68446;BMP280;35789;48.414;12.768;2022-12-10T09:15:00;95850.0;;;
68446;BMP280;35789;48.414;12.768;2022-12-10T09:20:00;95850.0;;;
68446;BMP280;35789;48.414;12.768;2022-12-10T09:25:00;95840.0;;;
68446;BMP280;35789;48.414;12.768;2022-12-10T09:30:02;95840.0;;;
68446;BMP280;35789;48.414;12.768;2022-12-10T09:35:00;95840.0;;;
68446;BMP280;35789;48.414;12.768;2022-12-10T09:40:00;95840.0;;;
68446;BMP280;35789;48.414;12.768;2022-12-10T09:45:09;95830.0;;;
68446;BMP280;35789;48.414;12.768;2022-12-10T09:50:10;95840.0;;;
68446;BMP280;35789;48.414;12.768;2022-12-10T09:55:05;95840.0;;;
68446;BMP280;35789;48.414;12.768;2022-12-10T10:00:05;95840.0;;;
68446;BMP280;35789;48.414;12.768;2022-12-10T10:05:11;95840.0;;;
68446;BMP280;35789;48.414;12.768;2022-12-10T10:10:04;95830.0;;;
68446;BMP280;35789;48.414;12.768;2022-12-10T10:15:13;95830.0;;;
68446;BMP280;35789;48.414;12.768;2022-12-10T10:20:00;95840.0;;;
68446;BMP280;35789;48.414;12.768;2022-12-10T10:25:00;95830.0;;;
68446;BMP280;35789;48.414;12.768;2022-12-10T10:30:04;95820.0;;;
68446;BMP280;35789;48.414;12.768;2022-12-10T10:35:00;95820.0;;;
68446;BMP280;35789;48.414;12.768;2022-12-10T10:40:01;95820.0;;;
68446;BMP280;35789;48.414;12.768;2022-12-10T10:45:02;95820.0;;;
68446;BMP280;35789;48.414;12.768;2022-12-10T10:50:00;95830.0;;;
68446;BMP280;35789;48.414;12.768;2022-12-10T10:55:00;95820.0;;;
68446;BMP280;35789;48.414;12.768;2022-12-10T11:00:05;95820.0;;;
68446;BMP280;35789;48.414;12.768;2022-12-10T11:05:07;95810.0;;;
68446;BMP280;35789;48.414;12.768;2022-12-10T11:10:01;95810.0;;;
68446;BMP280;35789;48.414;12.768;2022-12-10T11:15:00;95810.0;;;
68446;BMP280;35789;48.414;12.768;2022-12-10T11:20:15;95810.0;;;
68446;BMP280;35789;48.414;12.768;2022-12-10T11:25:00;95810.0;;;
68446;BMP280;35789;48.414;12.768;2022-12-10T11:30:09;95800.0;;;
68446;BMP280;35789;48.414;12.768;2022-12-10T11:35:11;95800.0;;;
68446;BMP280;35789;48.414;12.768;2022-12-10T11:40:15;95800.0;;;
68446;BMP280;35789;48.414;12.768;2022-12-10T11:45:13;95800.0;;;
68446;BMP280;35789;48.414;12.768;2022-12-10T11:50:14;95800.0;;;
68446;BMP280;35789;48.414;12.768;2022-12-10T11:55:13;95800.0;;;
68446;BMP280;35789;48.414;12.768;2022-12-10T12:00:13;95790.0;;;
68446;BMP280;35789;48.414;12.768;2022-12-10T12:05:24;95790.0;;;
68446;BMP280;35789;48.414;12.768;2022-12-10T12:15:12;95790.0;;;
68446;BMP280;35789;48.414;12.768;2022-12-10T12:20:11;95780.0;;;
68446;BMP280;35789;48.414;12.768;2022-12-10T12:25:05;95790.0;;;
68446;BMP280;35789;48.414;12.768;2022-12-10T12:30:06;95790.0;;;
68446;BMP280;35789;48.414;12.768;2022-12-10T12:35:05;95800.0;;;
68446;BMP280;35789;48.414;12.768;2022-12-10T12:40:09;95800.0;;;
68446;BMP280;35789;48.414;12.768;2022-12-10T12:45:10;95800.0;;;
68446;BMP280;35789;48.414;12.768;2022-12-10T12:50:02;95800.0;;;
68446;BMP280;35789;48.414;12.768;2022-12-10T12:55:09;95800.0;;;
68446;BMP280;35789;48.414;12.768;2022-12-10T13:00:05;95800.0;;;
68446;BMP280;35789;48.414;12.768;2022-12-10T13:05:00;95800.0;;;
68446;BMP280;35789;48.414;12.768;2022-12-10T13:10:22;95800.0;;;
68446;BMP280;35789;48.414;12.768;2022-12-10T13:15:16;95800.0;;;
68446;BMP280;35789;48.414;12.768;2022-12-10T13:25:13;95810.0;;;
68446;BMP280;35789;48.414;12.768;2022-12-10T13:30:05;95820.0;;;
68446;BMP280;35789;48.414;12.768;2022-12-10T13:35:28;95830.0;;;
68446;BMP280;35789;48.414;12.768;2022-12-10T13:40:14;95830.0;;;
68446;BMP280;35789;48.414;12.768;2022-12-10T13:45:03;95840.0;;;
68446;BMP280;35789;48.414;12.768;2022-12-10T13:50:03;95840.0;;;
68446;BMP280;35789;48.414;12.768;2022-12-10T13:55:19;95850.0;;;
68446;BMP280;35789;48.414;12.768;2022-12-10T14:00:08;95850.0;;;
68446;BMP280;35789;48.414;12.768;2022-12-10T14:05:18;95860.0;;;
68446;BMP280;35789;48.414;12.768;2022-12-10T14:10:02;95860.0;;;
68446;BMP280;35789;48.414;12.768;2022-12-10T14:15:04;95870.0;;;
68446;BMP280;35789;48.414;12.768;2022-12-10T14:20:03;95870.0;;;
68446;BMP280;35789;48.414;12.768;2022-12-10T14:25:03;95890.0;;;
68446;BMP280;35789;48.414;12.768;2022-12-10T14:30:05;95890.0;;;
68446;BMP280;35789;48.414;12.768;2022-12-10T14:35:03;95910.0;;;
68446;BMP280;35789;48.414;12.768;2022-12-10T14:40:01;95900.0;;;
68446;BMP280;35789;48.414;12.768;2022-12-10T14:45:06;95910.0;;;
68446;BMP280;35789;48.414;12.768;2022-12-10T14:50:00;95920.0;;;
68446;BMP280;35789;48.414;12.768;2022-12-10T14:55:01;95910.0;;;
68446;BMP280;35789;48.414;12.768;2022-12-10T15:00:06;95920.0;;;
68446;BMP280;35789;48.414;12.768;2022-12-10T15:05:01;95920.0;;;
68446;BMP280;35789;48.414;12.768;2022-12-10T15:10:02;95920.0;;;
68446;BMP280;35789;48.414;12.768;2022-12-10T15:15:10;95920.0;;;
68446;BMP280;35789;48.414;12.768;2022-12-10T15:20:00;95920.0;;;
68446;BMP280;35789;48.414;12.768;2022-12-10T15:25:19;95930.0;;;
68446;BMP280;35789;48.414;12.768;2022-12-10T15:30:22;95930.0;;;
68446;BMP280;35789;48.414;12.768;2022-12-10T15:35:05;95930.0;;;
68446;BMP280;35789;48.414;12.768;2022-12-10T15:40:05;95940.0;;;
68446;BMP280;35789;48.414;12.768;2022-12-10T15:45:09;95950.0;;;
68446;BMP280;35789;48.414;12.768;2022-12-10T15:50:00;95950.0;;;
68446;BMP280;35789;48.414;12.768;2022-12-10T15:55:00;95950.0;;;
68446;BMP280;35789;48.414;12.768;2022-12-10T16:00:05;95960.0;;;
68446;BMP280;35789;48.414;12.768;2022-12-10T16:05:01;95960.0;;;
68446;BMP280;35789;48.414;12.768;2022-12-10T16:10:00;95970.0;;;
68446;BMP280;35789;48.414;12.768;2022-12-10T16:15:00;95970.0;;;
68446;BMP280;35789;48.414;12.768;2022-12-10T16:20:21;95980.0;;;
68446;BMP280;35789;48.414;12.768;2022-12-10T16:25:00;95970.0;;;
68446;BMP280;35789;48.414;12.768;2022-12-10T16:30:00;95980.0;;;
68446;BMP280;35789;48.414;12.768;2022-12-10T16:35:00;95980.0;;;
68446;BMP280;35789;48.414;12.768;2022-12-10T16:40:00;95990.0;;;
68446;BMP280;35789;48.414;12.768;2022-12-10T16:45:00;96000.0;;;
68446;BMP280;35789;48.414;12.768;2022-12-10T16:50:00;96000.0;;;
68446;BMP280;35789;48.414;12.768;2022-12-10T16:55:00;96000.0;;;
68446;BMP280;35789;48.414;12.768;2022-12-10T17:00:00;96010.0;;;
68446;BMP280;35789;48.414;12.768;2022-12-10T17:05:00;96020.0;;;
68446;BMP280;35789;48.414;12.768;2022-12-10T17:10:00;96020.0;;;
68446;BMP280;35789;48.414;12.768;2022-12-10T17:15:00;96020.0;;;
68446;BMP280;35789;48.414;12.768;2022-12-10T17:20:00;96020.0;;;
68446;BMP280;35789;48.414;12.768;2022-12-10T17:25:00;96030.0;;;
68446;BMP280;35789;48.414;12.768;2022-12-10T17:30:00;96030.0;;;
68446;BMP280;35789;48.414;12.768;2022-12-10T17:35:00;96030.0;;;
68446;BMP280;35789;48.414;12.768;2022-12-10T17:40:00;96030.0;;;
68446;BMP280;35789;48.414;12.768;2022-12-10T17:45:00;96040.0;;;
68446;BMP280;35789;48.414;12.768;2022-12-10T17:50:00;96030.0;;;
68446;BMP280;35789;48.414;12.768;2022-12-10T17:55:00;96040.0;;;
68446;BMP280;35789;48.414;12.768;2022-12-10T18:00:00;96040.0;;;
68446;BMP280;35789;48.414;12.768;2022-12-10T18:05:00;96040.0;;;
68446;BMP280;35789;48.414;12.768;2022-12-10T18:10:00;96050.0;;;
68446;BMP280;35789;48.414;12.768;2022-12-10T18:15:00;96040.0;;;
68446;BMP280;35789;48.414;12.768;2022-12-10T18:20:00;96050.0;;;
68446;BMP280;35789;48.414;12.768;2022-12-10T18:25:00;96060.0;;;
68446;BMP280;35789;48.414;12.768;2022-12-10T18:30:00;96070.0;;;
68446;BMP280;35789;48.414;12.768;2022-12-10T18:35:00;96070.0;;;
68446;BMP280;35789;48.414;12.768;2022-12-10T18:40:00;96070.0;;;
68446;BMP280;35789;48.414;12.768;2022-12-10T18:45:00;96070.0;;;
68446;BMP280;35789;48.414;12.768;2022-12-10T18:50:00;96080.0;;;
68446;BMP280;35789;48.414;12.768;2022-12-10T18:55:00;96080.0;;;
68446;BMP280;35789;48.414;12.768;2022-12-10T19:00:00;96070.0;;;
68446;BMP280;35789;48.414;12.768;2022-12-10T19:05:00;96080.0;;;
68446;BMP280;35789;48.414;12.768;2022-12-10T19:10:00;96080.0;;;
68446;BMP280;35789;48.414;12.768;2022-12-10T19:15:00;96090.0;;;
68446;BMP280;35789;48.414;12.768;2022-12-10T19:20:00;96080.0;;;
68446;BMP280;35789;48.414;12.768;2022-12-10T19:25:00;96080.0;;;
68446;BMP280;35789;48.414;12.768;2022-12-10T19:30:00;96080.0;;;
68446;BMP280;35789;48.414;12.768;2022-12-10T19:35:00;96080.0;;;
68446;BMP280;35789;48.414;12.768;2022-12-10T19:40:00;96090.0;;;
68446;BMP280;35789;48.414;12.768;2022-12-10T19:45:00;96080.0;;;
68446;BMP280;35789;48.414;12.768;2022-12-10T19:50:00;96090.0;;;
68446;BMP280;35789;48.414;12.768;2022-12-10T19:55:00;96090.0;;;
68446;BMP280;35789;48.414;12.768;2022-12-10T20:00:00;96080.0;;;
68446;BMP280;35789;48.414;12.768;2022-12-10T20:05:00;96080.0;;;
68446;BMP280;35789;48.414;12.768;2022-12-10T20:10:00;96090.0;;;
68446;BMP280;35789;48.414;12.768;2022-12-10T20:15:00;96090.0;;;
68446;BMP280;35789;48.414;12.768;2022-12-10T20:20:00;96090.0;;;
68446;BMP280;35789;48.414;12.768;2022-12-10T20:25:00;96100.0;;;
68446;BMP280;35789;48.414;12.768;2022-12-10T20:30:00;96090.0;;;
68446;BMP280;35789;48.414;12.768;2022-12-10T20:35:00;96090.0;;;
68446;BMP280;35789;48.414;12.768;2022-12-10T20:40:00;96090.0;;;
68446;BMP280;35789;48.414;12.768;2022-12-10T20:45:00;96090.0;;;
68446;BMP280;35789;48.414;12.768;2022-12-10T20:50:00;96090.0;;;
68446;BMP280;35789;48.414;12.768;2022-12-10T20:55:00;96090.0;;;
68446;BMP280;35789;48.414;12.768;2022-12-10T21:00:00;96080.0;;;
68446;BMP280;35789;48.414;12.768;2022-12-10T21:05:00;96090.0;;;
68446;BMP280;35789;48.414;12.768;2022-12-10T21:10:00;96090.0;;;
68446;BMP280;35789;48.414;12.768;2022-12-10T21:15:00;96090.0;;;
68446;BMP280;35789;48.414;12.768;2022-12-10T21:20:00;96090.0;;;
68446;BMP280;35789;48.414;12.768;2022-12-10T21:25:00;96100.0;;;
68446;BMP280;35789;48.414;12.768;2022-12-10T21:30:00;96100.0;;;
68446;BMP280;35789;48.414;12.768;2022-12-10T21:35:00;96100.0;;;
68446;BMP280;35789;48.414;12.768;2022-12-10T21:40:00;96100.0;;;
68446;BMP280;35789;48.414;12.768;2022-12-10T21:45:00;96100.0;;;
68446;BMP280;35789;48.414;12.768;2022-12-10T21:50:00;96100.0;;;
68446;BMP280;35789;48.414;12.768;2022-12-10T21:55:00;96110.0;;;
68446;BMP280;35789;48.414;12.768;2022-12-10T22:00:00;96120.0;;;
68446;BMP280;35789;48.414;12.768;2022-12-10T22:05:00;96120.0;;;
68446;BMP280;35789;48.414;12.768;2022-12-10T22:10:00;96120.0;;;
68446;BMP280;35789;48.414;12.768;2022-12-10T22:15:01;96110.0;;;
68446;BMP280;35789;48.414;12.768;2022-12-10T22:20:00;96120.0;;;
68446;BMP280;35789;48.414;12.768;2022-12-10T22:25:01;96110.0;;;
68446;BMP280;35789;48.414;12.768;2022-12-10T22:30:01;96110.0;;;
68446;BMP280;35789;48.414;12.768;2022-12-10T22:35:00;96110.0;;;
68446;BMP280;35789;48.414;12.768;2022-12-10T22:40:00;96120.0;;;
68446;BMP280;35789;48.414;12.768;2022-12-10T22:45:00;96120.0;;;
68446;BMP280;35789;48.414;12.768;2022-12-10T22:50:00;96120.0;;;
68446;BMP280;35789;48.414;12.768;2022-12-10T22:55:00;96110.0;;;
68446;BMP280;35789;48.414;12.768;2022-12-10T23:00:00;96110.0;;;
68446;BMP280;35789;48.414;12.768;2022-12-10T23:05:00;96110.0;;;
68446;BMP280;35789;48.414;12.768;2022-12-10T23:10:00;96110.0;;;
68446;BMP280;35789;48.414;12.768;2022-12-10T23:15:00;96120.0;;;
68446;BMP280;35789;48.414;12.768;2022-12-10T23:20:00;96120.0;;;
68446;BMP280;35789;48.414;12.768;2022-12-10T23:25:00;96110.0;;;
68446;BMP280;35789;48.414;12.768;2022-12-10T23:30:00;96110.0;;;
68446;BMP280;35789;48.414;12.768;2022-12-10T23:35:00;96110.0;;;
68446;BMP280;35789;48.414;12.768;2022-12-10T23:40:00;96110.0;;;
68446;BMP280;35789;48.414;12.768;2022-12-10T23:45:01;96110.0;;;
68446;BMP280;35789;48.414;12.768;2022-12-10T23:50:00;96110.0;;;
68446;BMP280;35789;48.414;12.768;2022-12-10T23:55:00;96120.0;;;
